sensor_id;sensor_type;location;lat;lon;timestamp;P1;durP1;ratioP1;P2;durP2;ratioP2
19687;SDS011;9993;52.008;4.732;2022-12-08T00:02:11;2.97;;;2.67;;
19687;SDS011;9993;52.008;4.732;2022-12-08T00:04:37;2.23;;;2.03;;
19687;SDS011;9993;52.008;4.732;2022-12-08T00:07:23;1.77;;;1.67;;
19687;SDS011;9993;52.008;4.732;2022-12-08T00:10:07;2.10;;;2.00;;
19687;SDS011;9993;52.008;4.732;2022-12-08T00:12:32;1.57;;;1.43;;
19687;SDS011;9993;52.008;4.732;2022-12-08T00:14:57;1.50;;;1.50;;
19687;SDS011;9993;52.008;4.732;2022-12-08T00:17:22;3.13;;;1.30;;
19687;SDS011;9993;52.008;4.732;2022-12-08T00:19:48;2.17;;;1.50;;
19687;SDS011;9993;52.008;4.732;2022-12-08T00:22:14;1.37;;;1.27;;
19687;SDS011;9993;52.008;4.732;2022-12-08T00:24:40;4.00;;;1.40;;
19687;SDS011;9993;52.008;4.732;2022-12-08T00:27:09;1.70;;;1.60;;
19687;SDS011;9993;52.008;4.732;2022-12-08T00:29:35;2.57;;;1.80;;
19687;SDS011;9993;52.008;4.732;2022-12-08T00:32:00;3.83;;;2.80;;
19687;SDS011;9993;52.008;4.732;2022-12-08T00:34:25;3.23;;;2.50;;
19687;SDS011;9993;52.008;4.732;2022-12-08T00:36:50;6.37;;;3.27;;
19687;SDS011;9993;52.008;4.732;2022-12-08T00:39:16;5.87;;;4.40;;
19687;SDS011;9993;52.008;4.732;2022-12-08T00:41:41;9.27;;;6.10;;
19687;SDS011;9993;52.008;4.732;2022-12-08T00:44:25;9.13;;;6.80;;
19687;SDS011;9993;52.008;4.732;2022-12-08T00:46:50;9.27;;;6.00;;
19687;SDS011;9993;52.008;4.732;2022-12-08T00:49:16;11.93;;;7.43;;
19687;SDS011;9993;52.008;4.732;2022-12-08T00:51:41;10.17;;;6.73;;
19687;SDS011;9993;52.008;4.732;2022-12-08T00:54:07;12.23;;;8.43;;
19687;SDS011;9993;52.008;4.732;2022-12-08T00:56:32;9.13;;;7.47;;
19687;SDS011;9993;52.008;4.732;2022-12-08T00:58:58;11.43;;;8.80;;
19687;SDS011;9993;52.008;4.732;2022-12-08T01:01:23;12.73;;;8.77;;
19687;SDS011;9993;52.008;4.732;2022-12-08T01:03:48;12.57;;;7.23;;
19687;SDS011;9993;52.008;4.732;2022-12-08T01:06:14;10.90;;;8.73;;
19687;SDS011;9993;52.008;4.732;2022-12-08T01:08:39;10.77;;;9.40;;
19687;SDS011;9993;52.008;4.732;2022-12-08T01:11:06;11.33;;;9.50;;
19687;SDS011;9993;52.008;4.732;2022-12-08T01:13:34;11.40;;;9.33;;
19687;SDS011;9993;52.008;4.732;2022-12-08T01:15:59;11.07;;;8.70;;
19687;SDS011;9993;52.008;4.732;2022-12-08T01:18:28;10.70;;;8.47;;
19687;SDS011;9993;52.008;4.732;2022-12-08T01:20:53;9.57;;;7.13;;
19687;SDS011;9993;52.008;4.732;2022-12-08T01:23:19;8.30;;;6.77;;
19687;SDS011;9993;52.008;4.732;2022-12-08T01:25:44;8.50;;;7.07;;
19687;SDS011;9993;52.008;4.732;2022-12-08T01:28:09;10.83;;;6.67;;
19687;SDS011;9993;52.008;4.732;2022-12-08T01:30:36;9.83;;;6.37;;
19687;SDS011;9993;52.008;4.732;2022-12-08T01:33:01;6.70;;;4.73;;
19687;SDS011;9993;52.008;4.732;2022-12-08T01:35:27;7.20;;;5.10;;
19687;SDS011;9993;52.008;4.732;2022-12-08T01:37:52;4.83;;;4.10;;
19687;SDS011;9993;52.008;4.732;2022-12-08T01:40:17;5.80;;;4.20;;
19687;SDS011;9993;52.008;4.732;2022-12-08T01:42:42;4.37;;;3.53;;
19687;SDS011;9993;52.008;4.732;2022-12-08T01:45:16;3.83;;;3.43;;
19687;SDS011;9993;52.008;4.732;2022-12-08T01:47:45;4.23;;;3.73;;
19687;SDS011;9993;52.008;4.732;2022-12-08T01:50:12;3.97;;;3.57;;
19687;SDS011;9993;52.008;4.732;2022-12-08T01:52:40;6.80;;;4.20;;
19687;SDS011;9993;52.008;4.732;2022-12-08T01:55:08;5.37;;;3.80;;
19687;SDS011;9993;52.008;4.732;2022-12-08T01:57:42;4.33;;;3.93;;
19687;SDS011;9993;52.008;4.732;2022-12-08T02:00:09;4.23;;;3.80;;
19687;SDS011;9993;52.008;4.732;2022-12-08T02:02:41;5.90;;;3.80;;
19687;SDS011;9993;52.008;4.732;2022-12-08T02:05:10;6.50;;;4.10;;
19687;SDS011;9993;52.008;4.732;2022-12-08T02:07:35;24.87;;;15.73;;
19687;SDS011;9993;52.008;4.732;2022-12-08T02:10:05;9.37;;;6.67;;
19687;SDS011;9993;52.008;4.732;2022-12-08T02:12:30;5.33;;;4.27;;
19687;SDS011;9993;52.008;4.732;2022-12-08T02:14:55;9.37;;;5.77;;
19687;SDS011;9993;52.008;4.732;2022-12-08T02:17:30;6.17;;;5.53;;
19687;SDS011;9993;52.008;4.732;2022-12-08T02:21:01;9.87;;;5.10;;
19687;SDS011;9993;52.008;4.732;2022-12-08T02:23:16;5.77;;;4.93;;
19687;SDS011;9993;52.008;4.732;2022-12-08T02:26:10;6.27;;;5.70;;
19687;SDS011;9993;52.008;4.732;2022-12-08T02:37:35;6.73;;;5.87;;
19687;SDS011;9993;52.008;4.732;2022-12-08T02:40:17;7.37;;;5.80;;
19687;SDS011;9993;52.008;4.732;2022-12-08T02:45:30;7.93;;;6.83;;
19687;SDS011;9993;52.008;4.732;2022-12-08T02:47:57;9.50;;;6.93;;
19687;SDS011;9993;52.008;4.732;2022-12-08T02:50:22;10.30;;;6.87;;
19687;SDS011;9993;52.008;4.732;2022-12-08T02:52:48;13.80;;;8.03;;
19687;SDS011;9993;52.008;4.732;2022-12-08T02:55:18;14.27;;;9.30;;
19687;SDS011;9993;52.008;4.732;2022-12-08T02:57:53;6.13;;;4.57;;
19687;SDS011;9993;52.008;4.732;2022-12-08T03:00:20;4.87;;;3.97;;
19687;SDS011;9993;52.008;4.732;2022-12-08T03:05:21;5.30;;;3.93;;
19687;SDS011;9993;52.008;4.732;2022-12-08T03:07:52;5.43;;;2.90;;
19687;SDS011;9993;52.008;4.732;2022-12-08T03:10:31;5.33;;;3.27;;
19687;SDS011;9993;52.008;4.732;2022-12-08T03:12:59;3.40;;;2.40;;
19687;SDS011;9993;52.008;4.732;2022-12-08T03:15:26;2.77;;;2.47;;
19687;SDS011;9993;52.008;4.732;2022-12-08T03:17:52;3.87;;;2.13;;
19687;SDS011;9993;52.008;4.732;2022-12-08T03:20:21;2.30;;;1.77;;
19687;SDS011;9993;52.008;4.732;2022-12-08T03:22:49;1.67;;;1.57;;
19687;SDS011;9993;52.008;4.732;2022-12-08T03:25:16;3.43;;;1.70;;
19687;SDS011;9993;52.008;4.732;2022-12-08T03:27:42;1.93;;;1.83;;
19687;SDS011;9993;52.008;4.732;2022-12-08T03:30:08;3.70;;;1.90;;
19687;SDS011;9993;52.008;4.732;2022-12-08T03:35:03;1.43;;;1.43;;
19687;SDS011;9993;52.008;4.732;2022-12-08T03:37:29;6.30;;;1.27;;
19687;SDS011;9993;52.008;4.732;2022-12-08T03:39:54;5.30;;;1.40;;
19687;SDS011;9993;52.008;4.732;2022-12-08T03:42:20;2.10;;;1.50;;
19687;SDS011;9993;52.008;4.732;2022-12-08T03:44:45;1.60;;;1.50;;
19687;SDS011;9993;52.008;4.732;2022-12-08T03:47:11;2.57;;;1.80;;
19687;SDS011;9993;52.008;4.732;2022-12-08T03:49:36;1.60;;;1.60;;
19687;SDS011;9993;52.008;4.732;2022-12-08T03:52:01;3.83;;;1.63;;
19687;SDS011;9993;52.008;4.732;2022-12-08T03:54:26;1.77;;;1.43;;
19687;SDS011;9993;52.008;4.732;2022-12-08T03:56:52;1.40;;;1.30;;
19687;SDS011;9993;52.008;4.732;2022-12-08T03:59:17;1.93;;;1.47;;
19687;SDS011;9993;52.008;4.732;2022-12-08T04:01:42;4.10;;;1.63;;
19687;SDS011;9993;52.008;4.732;2022-12-08T04:04:07;2.33;;;1.23;;
19687;SDS011;9993;52.008;4.732;2022-12-08T04:06:32;2.40;;;1.77;;
19687;SDS011;9993;52.008;4.732;2022-12-08T04:08:58;1.50;;;1.40;;
19687;SDS011;9993;52.008;4.732;2022-12-08T04:11:23;1.83;;;1.37;;
19687;SDS011;9993;52.008;4.732;2022-12-08T04:13:48;2.20;;;1.50;;
19687;SDS011;9993;52.008;4.732;2022-12-08T04:16:14;1.47;;;1.47;;
19687;SDS011;9993;52.008;4.732;2022-12-08T04:18:40;1.10;;;1.10;;
19687;SDS011;9993;52.008;4.732;2022-12-08T04:21:05;2.37;;;1.57;;
19687;SDS011;9993;52.008;4.732;2022-12-08T04:23:30;1.50;;;1.50;;
19687;SDS011;9993;52.008;4.732;2022-12-08T04:25:56;1.60;;;1.50;;
19687;SDS011;9993;52.008;4.732;2022-12-08T04:28:21;4.90;;;1.60;;
19687;SDS011;9993;52.008;4.732;2022-12-08T04:30:46;2.73;;;1.50;;
19687;SDS011;9993;52.008;4.732;2022-12-08T04:33:12;3.23;;;1.40;;
19687;SDS011;9993;52.008;4.732;2022-12-08T04:35:37;2.20;;;1.50;;
19687;SDS011;9993;52.008;4.732;2022-12-08T04:38:04;1.23;;;1.23;;
19687;SDS011;9993;52.008;4.732;2022-12-08T04:40:29;3.93;;;2.00;;
19687;SDS011;9993;52.008;4.732;2022-12-08T04:42:54;1.33;;;1.33;;
19687;SDS011;9993;52.008;4.732;2022-12-08T04:45:19;3.87;;;1.50;;
19687;SDS011;9993;52.008;4.732;2022-12-08T04:47:45;1.20;;;1.20;;
19687;SDS011;9993;52.008;4.732;2022-12-08T04:50:10;5.13;;;1.50;;
19687;SDS011;9993;52.008;4.732;2022-12-08T04:52:35;1.10;;;1.10;;
19687;SDS011;9993;52.008;4.732;2022-12-08T04:55:01;2.33;;;1.50;;
19687;SDS011;9993;52.008;4.732;2022-12-08T04:57:26;2.50;;;1.53;;
19687;SDS011;9993;52.008;4.732;2022-12-08T04:59:55;1.50;;;1.40;;
19687;SDS011;9993;52.008;4.732;2022-12-08T05:02:20;2.83;;;1.50;;
19687;SDS011;9993;52.008;4.732;2022-12-08T05:04:45;3.13;;;1.50;;
19687;SDS011;9993;52.008;4.732;2022-12-08T05:07:11;2.20;;;1.40;;
19687;SDS011;9993;52.008;4.732;2022-12-08T05:09:36;4.67;;;1.90;;
19687;SDS011;9993;52.008;4.732;2022-12-08T05:12:01;3.90;;;1.73;;
19687;SDS011;9993;52.008;4.732;2022-12-08T05:14:26;4.90;;;1.50;;
19687;SDS011;9993;52.008;4.732;2022-12-08T05:16:53;4.23;;;1.90;;
19687;SDS011;9993;52.008;4.732;2022-12-08T05:19:18;3.60;;;2.00;;
19687;SDS011;9993;52.008;4.732;2022-12-08T05:21:44;1.60;;;1.60;;
19687;SDS011;9993;52.008;4.732;2022-12-08T05:24:09;1.60;;;1.50;;
19687;SDS011;9993;52.008;4.732;2022-12-08T05:26:34;1.80;;;1.70;;
19687;SDS011;9993;52.008;4.732;2022-12-08T05:29:00;4.40;;;1.77;;
19687;SDS011;9993;52.008;4.732;2022-12-08T05:31:25;3.83;;;1.90;;
19687;SDS011;9993;52.008;4.732;2022-12-08T05:33:50;1.70;;;1.60;;
19687;SDS011;9993;52.008;4.732;2022-12-08T05:36:16;1.67;;;1.57;;
19687;SDS011;9993;52.008;4.732;2022-12-08T05:38:44;1.93;;;1.73;;
19687;SDS011;9993;52.008;4.732;2022-12-08T05:41:18;7.80;;;1.80;;
19687;SDS011;9993;52.008;4.732;2022-12-08T05:43:44;3.57;;;1.40;;
19687;SDS011;9993;52.008;4.732;2022-12-08T05:46:10;3.17;;;1.40;;
19687;SDS011;9993;52.008;4.732;2022-12-08T05:48:35;3.90;;;1.67;;
19687;SDS011;9993;52.008;4.732;2022-12-08T05:51:00;4.20;;;1.50;;
19687;SDS011;9993;52.008;4.732;2022-12-08T05:53:26;3.33;;;1.53;;
19687;SDS011;9993;52.008;4.732;2022-12-08T05:55:51;3.03;;;1.63;;
19687;SDS011;9993;52.008;4.732;2022-12-08T05:58:17;1.43;;;1.43;;
19687;SDS011;9993;52.008;4.732;2022-12-08T06:00:46;1.90;;;1.37;;
19687;SDS011;9993;52.008;4.732;2022-12-08T06:03:12;1.63;;;1.53;;
19687;SDS011;9993;52.008;4.732;2022-12-08T06:05:38;1.43;;;1.33;;
19687;SDS011;9993;52.008;4.732;2022-12-08T06:08:04;3.73;;;1.67;;
19687;SDS011;9993;52.008;4.732;2022-12-08T06:10:29;2.10;;;1.23;;
19687;SDS011;9993;52.008;4.732;2022-12-08T06:12:54;1.43;;;1.37;;
19687;SDS011;9993;52.008;4.732;2022-12-08T06:15:19;1.40;;;1.30;;
19687;SDS011;9993;52.008;4.732;2022-12-08T06:17:45;2.30;;;1.30;;
19687;SDS011;9993;52.008;4.732;2022-12-08T06:20:10;1.00;;;1.00;;
19687;SDS011;9993;52.008;4.732;2022-12-08T06:22:35;1.77;;;1.67;;
19687;SDS011;9993;52.008;4.732;2022-12-08T06:25:01;1.20;;;1.20;;
19687;SDS011;9993;52.008;4.732;2022-12-08T06:27:26;1.30;;;1.20;;
19687;SDS011;9993;52.008;4.732;2022-12-08T06:29:51;1.50;;;1.40;;
19687;SDS011;9993;52.008;4.732;2022-12-08T06:32:17;1.33;;;1.23;;
19687;SDS011;9993;52.008;4.732;2022-12-08T06:34:42;1.20;;;1.20;;
19687;SDS011;9993;52.008;4.732;2022-12-08T06:37:07;1.50;;;1.40;;
19687;SDS011;9993;52.008;4.732;2022-12-08T06:39:32;1.20;;;1.20;;
19687;SDS011;9993;52.008;4.732;2022-12-08T06:41:57;1.23;;;1.23;;
19687;SDS011;9993;52.008;4.732;2022-12-08T06:44:42;1.30;;;1.30;;
19687;SDS011;9993;52.008;4.732;2022-12-08T06:47:07;1.57;;;1.47;;
19687;SDS011;9993;52.008;4.732;2022-12-08T06:49:32;1.57;;;1.50;;
19687;SDS011;9993;52.008;4.732;2022-12-08T06:51:57;1.30;;;1.30;;
19687;SDS011;9993;52.008;4.732;2022-12-08T06:54:22;1.70;;;1.60;;
19687;SDS011;9993;52.008;4.732;2022-12-08T06:56:48;3.77;;;1.60;;
19687;SDS011;9993;52.008;4.732;2022-12-08T06:59:13;1.70;;;1.60;;
19687;SDS011;9993;52.008;4.732;2022-12-08T07:01:38;2.50;;;1.40;;
19687;SDS011;9993;52.008;4.732;2022-12-08T07:04:03;4.77;;;1.87;;
19687;SDS011;9993;52.008;4.732;2022-12-08T07:06:28;1.10;;;1.10;;
19687;SDS011;9993;52.008;4.732;2022-12-08T07:08:54;2.47;;;1.67;;
19687;SDS011;9993;52.008;4.732;2022-12-08T07:11:19;1.90;;;1.80;;
19687;SDS011;9993;52.008;4.732;2022-12-08T07:13:44;3.37;;;1.53;;
19687;SDS011;9993;52.008;4.732;2022-12-08T07:16:12;1.80;;;1.70;;
19687;SDS011;9993;52.008;4.732;2022-12-08T07:18:37;2.40;;;1.30;;
19687;SDS011;9993;52.008;4.732;2022-12-08T07:21:04;1.50;;;1.50;;
19687;SDS011;9993;52.008;4.732;2022-12-08T07:23:29;1.47;;;1.37;;
19687;SDS011;9993;52.008;4.732;2022-12-08T07:25:54;1.70;;;1.60;;
19687;SDS011;9993;52.008;4.732;2022-12-08T07:28:20;1.80;;;1.70;;
19687;SDS011;9993;52.008;4.732;2022-12-08T07:30:45;1.63;;;1.40;;
19687;SDS011;9993;52.008;4.732;2022-12-08T07:33:10;2.10;;;2.00;;
19687;SDS011;9993;52.008;4.732;2022-12-08T07:35:35;1.60;;;1.50;;
19687;SDS011;9993;52.008;4.732;2022-12-08T07:38:01;1.63;;;1.57;;
19687;SDS011;9993;52.008;4.732;2022-12-08T07:40:26;3.43;;;1.90;;
19687;SDS011;9993;52.008;4.732;2022-12-08T07:42:54;1.70;;;1.60;;
19687;SDS011;9993;52.008;4.732;2022-12-08T07:45:22;1.40;;;1.40;;
19687;SDS011;9993;52.008;4.732;2022-12-08T07:47:51;1.80;;;1.30;;
19687;SDS011;9993;52.008;4.732;2022-12-08T07:50:16;5.37;;;1.60;;
19687;SDS011;9993;52.008;4.732;2022-12-08T07:52:42;1.60;;;1.50;;
19687;SDS011;9993;52.008;4.732;2022-12-08T07:55:07;1.50;;;1.40;;
19687;SDS011;9993;52.008;4.732;2022-12-08T07:57:32;2.10;;;1.80;;
19687;SDS011;9993;52.008;4.732;2022-12-08T08:00:01;2.90;;;1.63;;
19687;SDS011;9993;52.008;4.732;2022-12-08T08:02:26;1.50;;;1.50;;
19687;SDS011;9993;52.008;4.732;2022-12-08T08:04:51;1.63;;;1.53;;
19687;SDS011;9993;52.008;4.732;2022-12-08T08:07:17;1.60;;;1.50;;
19687;SDS011;9993;52.008;4.732;2022-12-08T08:09:42;1.67;;;1.57;;
19687;SDS011;9993;52.008;4.732;2022-12-08T08:12:07;1.37;;;1.33;;
19687;SDS011;9993;52.008;4.732;2022-12-08T08:14:33;1.90;;;1.80;;
19687;SDS011;9993;52.008;4.732;2022-12-08T08:16:59;3.43;;;2.37;;
19687;SDS011;9993;52.008;4.732;2022-12-08T08:19:24;5.67;;;2.67;;
19687;SDS011;9993;52.008;4.732;2022-12-08T08:21:49;4.60;;;2.10;;
19687;SDS011;9993;52.008;4.732;2022-12-08T08:24:15;2.70;;;1.90;;
19687;SDS011;9993;52.008;4.732;2022-12-08T08:26:41;1.80;;;1.70;;
19687;SDS011;9993;52.008;4.732;2022-12-08T08:29:06;2.23;;;2.10;;
19687;SDS011;9993;52.008;4.732;2022-12-08T08:31:31;2.30;;;2.03;;
19687;SDS011;9993;52.008;4.732;2022-12-08T08:33:57;2.63;;;2.33;;
19687;SDS011;9993;52.008;4.732;2022-12-08T08:36:22;2.53;;;2.33;;
19687;SDS011;9993;52.008;4.732;2022-12-08T08:38:47;2.93;;;2.73;;
19687;SDS011;9993;52.008;4.732;2022-12-08T08:41:12;2.90;;;2.47;;
19687;SDS011;9993;52.008;4.732;2022-12-08T08:43:37;2.97;;;2.77;;
19687;SDS011;9993;52.008;4.732;2022-12-08T08:46:03;4.03;;;2.70;;
19687;SDS011;9993;52.008;4.732;2022-12-08T08:48:30;4.37;;;3.10;;
19687;SDS011;9993;52.008;4.732;2022-12-08T08:50:55;4.67;;;2.87;;
19687;SDS011;9993;52.008;4.732;2022-12-08T08:53:21;4.77;;;3.60;;
19687;SDS011;9993;52.008;4.732;2022-12-08T08:55:46;5.60;;;3.10;;
19687;SDS011;9993;52.008;4.732;2022-12-08T08:58:12;6.13;;;3.03;;
19687;SDS011;9993;52.008;4.732;2022-12-08T09:00:38;3.37;;;2.67;;
19687;SDS011;9993;52.008;4.732;2022-12-08T09:03:04;5.77;;;3.33;;
19687;SDS011;9993;52.008;4.732;2022-12-08T09:05:29;7.73;;;4.77;;
19687;SDS011;9993;52.008;4.732;2022-12-08T09:07:54;3.80;;;2.70;;
19687;SDS011;9993;52.008;4.732;2022-12-08T09:10:19;4.37;;;3.97;;
19687;SDS011;9993;52.008;4.732;2022-12-08T09:12:45;2.77;;;2.57;;
19687;SDS011;9993;52.008;4.732;2022-12-08T09:15:10;2.27;;;2.07;;
19687;SDS011;9993;52.008;4.732;2022-12-08T09:17:35;2.30;;;2.20;;
19687;SDS011;9993;52.008;4.732;2022-12-08T09:20:04;2.30;;;2.20;;
19687;SDS011;9993;52.008;4.732;2022-12-08T09:22:30;3.73;;;2.47;;
19687;SDS011;9993;52.008;4.732;2022-12-08T09:24:58;2.40;;;2.30;;
19687;SDS011;9993;52.008;4.732;2022-12-08T09:27:23;2.53;;;2.33;;
19687;SDS011;9993;52.008;4.732;2022-12-08T09:29:49;2.50;;;2.30;;
19687;SDS011;9993;52.008;4.732;2022-12-08T09:32:14;4.27;;;2.60;;
19687;SDS011;9993;52.008;4.732;2022-12-08T09:34:39;2.40;;;2.30;;
19687;SDS011;9993;52.008;4.732;2022-12-08T09:37:04;4.37;;;2.97;;
19687;SDS011;9993;52.008;4.732;2022-12-08T09:39:29;2.87;;;2.60;;
19687;SDS011;9993;52.008;4.732;2022-12-08T09:41:59;2.97;;;2.17;;
19687;SDS011;9993;52.008;4.732;2022-12-08T09:46:56;2.60;;;2.33;;
19687;SDS011;9993;52.008;4.732;2022-12-08T09:49:27;5.97;;;3.40;;
19687;SDS011;9993;52.008;4.732;2022-12-08T09:51:57;3.07;;;2.87;;
19687;SDS011;9993;52.008;4.732;2022-12-08T09:54:41;6.43;;;4.60;;
19687;SDS011;9993;52.008;4.732;2022-12-08T09:57:07;7.00;;;5.77;;
19687;SDS011;9993;52.008;4.732;2022-12-08T09:59:37;5.70;;;3.97;;
19687;SDS011;9993;52.008;4.732;2022-12-08T10:02:12;6.10;;;4.57;;
19687;SDS011;9993;52.008;4.732;2022-12-08T10:04:43;6.93;;;5.27;;
19687;SDS011;9993;52.008;4.732;2022-12-08T10:12:21;6.27;;;5.33;;
19687;SDS011;9993;52.008;4.732;2022-12-08T10:14:53;6.73;;;6.07;;
19687;SDS011;9993;52.008;4.732;2022-12-08T10:19:46;9.13;;;7.47;;
19687;SDS011;9993;52.008;4.732;2022-12-08T10:22:31;8.23;;;6.37;;
19687;SDS011;9993;52.008;4.732;2022-12-08T10:27:28;8.17;;;6.87;;
19687;SDS011;9993;52.008;4.732;2022-12-08T10:29:54;12.13;;;9.67;;
19687;SDS011;9993;52.008;4.732;2022-12-08T10:32:21;41.27;;;25.90;;
19687;SDS011;9993;52.008;4.732;2022-12-08T10:35:04;12.37;;;8.90;;
19687;SDS011;9993;52.008;4.732;2022-12-08T10:37:29;13.60;;;9.70;;
19687;SDS011;9993;52.008;4.732;2022-12-08T10:39:59;14.00;;;10.17;;
19687;SDS011;9993;52.008;4.732;2022-12-08T10:42:25;10.13;;;7.27;;
19687;SDS011;9993;52.008;4.732;2022-12-08T10:47:39;7.83;;;5.93;;
19687;SDS011;9993;52.008;4.732;2022-12-08T10:52:53;8.47;;;6.17;;
19687;SDS011;9993;52.008;4.732;2022-12-08T10:55:19;7.53;;;5.60;;
19687;SDS011;9993;52.008;4.732;2022-12-08T10:57:44;8.53;;;5.77;;
19687;SDS011;9993;52.008;4.732;2022-12-08T11:00:20;8.50;;;6.10;;
19687;SDS011;9993;52.008;4.732;2022-12-08T11:02:49;7.07;;;4.63;;
19687;SDS011;9993;52.008;4.732;2022-12-08T11:05:15;7.70;;;5.67;;
19687;SDS011;9993;52.008;4.732;2022-12-08T11:07:45;5.10;;;4.60;;
19687;SDS011;9993;52.008;4.732;2022-12-08T11:10:16;5.63;;;4.80;;
19687;SDS011;9993;52.008;4.732;2022-12-08T11:12:42;6.10;;;4.80;;
19687;SDS011;9993;52.008;4.732;2022-12-08T11:15:12;4.23;;;3.83;;
19687;SDS011;9993;52.008;4.732;2022-12-08T11:17:38;4.83;;;3.77;;
19687;SDS011;9993;52.008;4.732;2022-12-08T11:20:19;5.83;;;3.10;;
19687;SDS011;9993;52.008;4.732;2022-12-08T11:22:45;3.00;;;2.30;;
19687;SDS011;9993;52.008;4.732;2022-12-08T11:25:14;2.77;;;2.53;;
19687;SDS011;9993;52.008;4.732;2022-12-08T11:27:42;2.50;;;2.30;;
19687;SDS011;9993;52.008;4.732;2022-12-08T11:32:37;2.33;;;2.13;;
19687;SDS011;9993;52.008;4.732;2022-12-08T11:35:05;3.50;;;2.53;;
19687;SDS011;9993;52.008;4.732;2022-12-08T11:39:59;3.23;;;2.93;;
19687;SDS011;9993;52.008;4.732;2022-12-08T11:42:29;4.43;;;3.30;;
19687;SDS011;9993;52.008;4.732;2022-12-08T11:45:00;4.17;;;3.07;;
19687;SDS011;9993;52.008;4.732;2022-12-08T11:47:33;5.30;;;4.00;;
19687;SDS011;9993;52.008;4.732;2022-12-08T11:50:02;3.33;;;3.03;;
19687;SDS011;9993;52.008;4.732;2022-12-08T11:52:29;3.90;;;3.00;;
19687;SDS011;9993;52.008;4.732;2022-12-08T11:55:23;4.03;;;3.60;;
19687;SDS011;9993;52.008;4.732;2022-12-08T11:57:42;4.70;;;3.97;;
19687;SDS011;9993;52.008;4.732;2022-12-08T12:00:11;3.67;;;3.37;;
19687;SDS011;9993;52.008;4.732;2022-12-08T12:02:37;3.70;;;3.40;;
19687;SDS011;9993;52.008;4.732;2022-12-08T12:05:12;5.13;;;4.10;;
19687;SDS011;9993;52.008;4.732;2022-12-08T12:18:01;3.37;;;2.83;;
19687;SDS011;9993;52.008;4.732;2022-12-08T12:20:34;4.73;;;3.30;;
19687;SDS011;9993;52.008;4.732;2022-12-08T12:23:01;2.07;;;1.97;;
19687;SDS011;9993;52.008;4.732;2022-12-08T12:25:30;5.37;;;4.17;;
19687;SDS011;9993;52.008;4.732;2022-12-08T12:27:57;1.43;;;1.43;;
19687;SDS011;9993;52.008;4.732;2022-12-08T12:30:25;1.60;;;1.47;;
19687;SDS011;9993;52.008;4.732;2022-12-08T12:32:52;1.40;;;1.30;;
19687;SDS011;9993;52.008;4.732;2022-12-08T12:35:27;2.20;;;2.03;;
19687;SDS011;9993;52.008;4.732;2022-12-08T12:37:55;1.77;;;1.53;;
19687;SDS011;9993;52.008;4.732;2022-12-08T12:40:22;1.37;;;1.37;;
19687;SDS011;9993;52.008;4.732;2022-12-08T12:50:11;1.80;;;1.70;;
19687;SDS011;9993;52.008;4.732;2022-12-08T12:52:36;1.50;;;1.40;;
19687;SDS011;9993;52.008;4.732;2022-12-08T12:57:37;1.30;;;1.30;;
19687;SDS011;9993;52.008;4.732;2022-12-08T13:02:28;2.03;;;1.90;;
19687;SDS011;9993;52.008;4.732;2022-12-08T13:05:02;2.80;;;1.83;;
19687;SDS011;9993;52.008;4.732;2022-12-08T13:07:33;2.37;;;2.10;;
19687;SDS011;9993;52.008;4.732;2022-12-08T13:10:01;4.30;;;2.00;;
19687;SDS011;9993;52.008;4.732;2022-12-08T13:12:27;2.17;;;2.07;;
19687;SDS011;9993;52.008;4.732;2022-12-08T13:14:54;1.90;;;1.80;;
19687;SDS011;9993;52.008;4.732;2022-12-08T13:17:26;2.50;;;2.30;;
19687;SDS011;9993;52.008;4.732;2022-12-08T13:19:56;2.67;;;2.47;;
19687;SDS011;9993;52.008;4.732;2022-12-08T13:27:53;2.63;;;2.43;;
19687;SDS011;9993;52.008;4.732;2022-12-08T13:30:40;2.80;;;2.60;;
19687;SDS011;9993;52.008;4.732;2022-12-08T13:33:09;3.50;;;3.20;;
19687;SDS011;9993;52.008;4.732;2022-12-08T13:35:37;3.33;;;3.10;;
19687;SDS011;9993;52.008;4.732;2022-12-08T13:38:05;4.60;;;2.90;;
19687;SDS011;9993;52.008;4.732;2022-12-08T13:40:30;2.90;;;2.70;;
19687;SDS011;9993;52.008;4.732;2022-12-08T13:45:26;3.13;;;2.97;;
19687;SDS011;9993;52.008;4.732;2022-12-08T13:47:56;3.63;;;3.33;;
19687;SDS011;9993;52.008;4.732;2022-12-08T13:52:50;3.33;;;3.03;;
19687;SDS011;9993;52.008;4.732;2022-12-08T13:55:21;3.00;;;2.80;;
19687;SDS011;9993;52.008;4.732;2022-12-08T13:57:50;3.83;;;3.47;;
19687;SDS011;9993;52.008;4.732;2022-12-08T14:00:19;3.57;;;3.27;;
19687;SDS011;9993;52.008;4.732;2022-12-08T14:02:45;2.93;;;2.73;;
19687;SDS011;9993;52.008;4.732;2022-12-08T14:05:11;2.70;;;2.50;;
19687;SDS011;9993;52.008;4.732;2022-12-08T14:07:36;4.53;;;3.03;;
19687;SDS011;9993;52.008;4.732;2022-12-08T14:10:02;2.83;;;2.63;;
19687;SDS011;9993;52.008;4.732;2022-12-08T14:12:31;2.80;;;2.60;;
19687;SDS011;9993;52.008;4.732;2022-12-08T14:14:57;2.50;;;2.40;;
19687;SDS011;9993;52.008;4.732;2022-12-08T14:17:23;7.07;;;2.83;;
19687;SDS011;9993;52.008;4.732;2022-12-08T14:19:56;4.13;;;2.40;;
19687;SDS011;9993;52.008;4.732;2022-12-08T14:22:22;2.77;;;2.57;;
19687;SDS011;9993;52.008;4.732;2022-12-08T14:24:52;7.10;;;2.80;;
19687;SDS011;9993;52.008;4.732;2022-12-08T14:27:19;2.50;;;2.40;;
19687;SDS011;9993;52.008;4.732;2022-12-08T14:29:52;3.90;;;3.30;;
19687;SDS011;9993;52.008;4.732;2022-12-08T14:32:19;4.73;;;2.80;;
19687;SDS011;9993;52.008;4.732;2022-12-08T14:34:49;5.40;;;2.23;;
19687;SDS011;9993;52.008;4.732;2022-12-08T14:37:14;3.53;;;3.23;;
19687;SDS011;9993;52.008;4.732;2022-12-08T14:39:40;3.93;;;3.00;;
19687;SDS011;9993;52.008;4.732;2022-12-08T14:42:05;4.40;;;2.53;;
19687;SDS011;9993;52.008;4.732;2022-12-08T14:44:31;2.17;;;2.07;;
19687;SDS011;9993;52.008;4.732;2022-12-08T14:47:07;2.93;;;2.30;;
19687;SDS011;9993;52.008;4.732;2022-12-08T14:49:33;1.77;;;1.67;;
19687;SDS011;9993;52.008;4.732;2022-12-08T14:51:59;1.77;;;1.67;;
19687;SDS011;9993;52.008;4.732;2022-12-08T14:54:25;2.13;;;1.63;;
19687;SDS011;9993;52.008;4.732;2022-12-08T14:56:53;1.50;;;1.40;;
19687;SDS011;9993;52.008;4.732;2022-12-08T14:59:20;1.83;;;1.73;;
19687;SDS011;9993;52.008;4.732;2022-12-08T15:01:50;2.13;;;2.00;;
19687;SDS011;9993;52.008;4.732;2022-12-08T15:04:22;2.37;;;2.23;;
19687;SDS011;9993;52.008;4.732;2022-12-08T15:06:51;2.37;;;2.17;;
19687;SDS011;9993;52.008;4.732;2022-12-08T15:12:02;5.20;;;3.30;;
19687;SDS011;9993;52.008;4.732;2022-12-08T15:14:32;4.30;;;2.90;;
19687;SDS011;9993;52.008;4.732;2022-12-08T15:16:57;5.53;;;3.70;;
19687;SDS011;9993;52.008;4.732;2022-12-08T15:19:27;3.27;;;2.93;;
19687;SDS011;9993;52.008;4.732;2022-12-08T15:21:54;3.20;;;2.90;;
19687;SDS011;9993;52.008;4.732;2022-12-08T15:24:21;4.03;;;2.53;;
19687;SDS011;9993;52.008;4.732;2022-12-08T15:26:47;2.60;;;2.27;;
19687;SDS011;9993;52.008;4.732;2022-12-08T15:29:26;3.43;;;2.30;;
19687;SDS011;9993;52.008;4.732;2022-12-08T15:31:53;2.23;;;2.00;;
19687;SDS011;9993;52.008;4.732;2022-12-08T15:34:19;2.80;;;2.40;;
19687;SDS011;9993;52.008;4.732;2022-12-08T15:36:45;3.83;;;2.40;;
19687;SDS011;9993;52.008;4.732;2022-12-08T15:39:29;7.30;;;2.77;;
19687;SDS011;9993;52.008;4.732;2022-12-08T15:41:55;3.83;;;2.27;;
19687;SDS011;9993;52.008;4.732;2022-12-08T15:44:20;2.57;;;2.37;;
19687;SDS011;9993;52.008;4.732;2022-12-08T15:46:46;2.40;;;2.30;;
19687;SDS011;9993;52.008;4.732;2022-12-08T15:49:17;2.40;;;2.27;;
19687;SDS011;9993;52.008;4.732;2022-12-08T15:51:42;3.13;;;2.27;;
19687;SDS011;9993;52.008;4.732;2022-12-08T15:54:07;2.37;;;2.17;;
19687;SDS011;9993;52.008;4.732;2022-12-08T15:56:33;2.77;;;2.57;;
19687;SDS011;9993;52.008;4.732;2022-12-08T15:58:58;3.33;;;2.57;;
19687;SDS011;9993;52.008;4.732;2022-12-08T16:01:23;2.00;;;1.90;;
19687;SDS011;9993;52.008;4.732;2022-12-08T16:03:49;3.60;;;2.33;;
19687;SDS011;9993;52.008;4.732;2022-12-08T16:06:16;2.43;;;2.23;;
19687;SDS011;9993;52.008;4.732;2022-12-08T16:08:42;2.10;;;2.00;;
19687;SDS011;9993;52.008;4.732;2022-12-08T16:11:07;3.00;;;2.70;;
19687;SDS011;9993;52.008;4.732;2022-12-08T16:13:51;3.37;;;3.07;;
19687;SDS011;9993;52.008;4.732;2022-12-08T16:16:17;3.40;;;3.10;;
19687;SDS011;9993;52.008;4.732;2022-12-08T16:18:45;2.83;;;2.60;;